Meteo Giornale » Osservazioni meteo Gran Bretagna » Wittering

ore: 14:50 - Osservazioni Meteo Wittering
Lat. 52° 37' N Lon. 0° 28' W Alt. 84 metri s.l.m.

molto_nuvoloso Europe/London

17 °C

Molto Nuvoloso

Temp. 24 Ore

8 °C

17 °C

Sud

31.5 Km/h

Dew point 10 °C

Umidità 63 %

Visibilità  10 Km

Il sole sorge alle ore 06:56

Il sole tramonta alle ore 18:48

Data e Ora Cielo e Fenomeni T °C DP °C Um. % Pres. hPa Vis. km Vento km/h
Oggi h: 14:50 molto_nuvoloso Molto Nuvoloso 17 10 63 1012 10 S 31.5
Oggi h: 13:50 nuvoloso Nuvoloso 17 10 63 1012 10 S 29.6
Oggi h: 12:50 nuvoloso Nuvoloso 17 9 59 1013 10 S 29.6
Oggi h: 11:50 nuvoloso Nuvoloso 16 10 67 1014 10 S 29.6
Oggi h: 10:50 sereno Sereno 15 9 67 1015 10 S 31.5
Oggi h: 09:50 sereno Sereno 13 10 81 1015 10 S 18.5
Oggi h: 08:50 molto_nuvoloso Molto Nuvoloso 11 9 87 1016 10 S 14.8
Oggi h: 07:50 sereno Sereno 10 9 93 1016 10 S 16.7
Oggi h: 06:50 sereno Sereno 10 8 87 1016 10 S 16.7
Oggi h: 03:50 sereno Sereno 8 7 93 1016 10 SO 14.8
Oggi h: 02:50 sereno Sereno 9 7 87 1016 10 SO 16.7
Oggi h: 01:50 sereno Sereno 9 8 93 1016 10 S/SO 16.7
Oggi h: 00:50 sereno Sereno 10 8 87 1016 10 S/SO 20.3
Ieri h: 23:50 sereno Sereno 10 8 87 1016 10 S/SO 18.5
Ieri h: 20:50 sereno Sereno 11 7 76 1014 10 SO 20.3
Ieri h: 19:50 sereno Sereno 12 7 71 1013 10 SO 20.3
Ieri h: 18:50 sereno Sereno 13 8 71 1012 10 SO 20.3
Ieri h: 17:50 sereno Sereno 15 7 58 1011 10 O/SO 27.8
Ieri h: 16:50 poco_nuvoloso Poco Nuvoloso 15 8 62 1011 10 O/SO 29.6
Ieri h: 15:50 coperto_pioggia Pioggia Debole 13 9 76 1010 10 O/SO 31.5